Terminal Aerodrome Forecast
Issued by NWS

Home | Current Version | Previous Version | Text Only | Print | Product List | Glossary On
Versions: 1 2 3 4 5 6 7 8 9 10 11 12 13 14 15
000
FTUS41 KBTV 301133
TAFRUT
TAF
KRUT 301133Z 3012/3112 24004KT P6SM VCSH SCT028 OVC050
     FM301400 32006KT P6SM BKN040
     FM302200 33003KT P6SM SCT150
      AMD LTD TO CLD VIS AND WIND=

USA.gov is the U.S. government's official web portal to all federal, state and local government web resources and services.